createdAt,value
2018-09-20T00:00:13.127Z,1014.45
2018-09-20T00:01:13.064Z,1014.46
2018-09-20T00:02:13.013Z,1014.48
2018-09-20T00:03:12.976Z,1014.47
2018-09-20T00:04:12.935Z,1014.42
2018-09-20T00:05:12.893Z,1014.42
2018-09-20T00:06:12.848Z,1014.39
2018-09-20T00:07:12.813Z,1014.40
2018-09-20T00:08:12.765Z,1014.38
2018-09-20T00:09:12.723Z,1014.38
2018-09-20T00:10:12.675Z,1014.40
2018-09-20T00:11:12.636Z,1014.35
2018-09-20T00:12:12.601Z,1014.35
2018-09-20T00:13:12.550Z,1014.37
2018-09-20T00:14:12.508Z,1014.34
2018-09-20T00:15:12.468Z,1014.33
2018-09-20T00:16:12.425Z,1014.29
2018-09-20T00:17:12.387Z,1014.30
2018-09-20T00:18:12.345Z,1014.23
2018-09-20T00:19:12.296Z,1014.26
2018-09-20T00:20:12.256Z,1014.24
2018-09-20T00:21:12.212Z,1014.17
2018-09-20T00:22:12.167Z,1014.13
2018-09-20T00:23:12.122Z,1014.13
2018-09-20T00:24:12.084Z,1014.13
2018-09-20T00:25:12.046Z,1014.13
2018-09-20T00:26:12.001Z,1014.11
2018-09-20T00:27:11.951Z,1014.11
2018-09-20T00:28:11.919Z,1014.12
2018-09-20T00:29:11.874Z,1014.08
2018-09-20T00:30:11.829Z,1014.11
2018-09-20T00:31:11.784Z,1014.11
2018-09-20T00:32:11.734Z,1014.10
2018-09-20T00:33:11.701Z,1014.08
2018-09-20T00:34:11.657Z,1014.06
2018-09-20T00:35:11.615Z,1014.08
2018-09-20T00:36:11.577Z,1014.13
2018-09-20T00:37:11.532Z,1014.11
2018-09-20T00:38:11.487Z,1014.11
2018-09-20T00:39:11.442Z,1014.15
2018-09-20T00:40:11.401Z,1014.15
2018-09-20T00:41:11.360Z,1014.16
2018-09-20T00:42:11.315Z,1014.14
2018-09-20T00:43:11.274Z,1014.12
2018-09-20T00:44:11.232Z,1014.13
2018-09-20T00:45:11.187Z,1014.07
2018-09-20T00:46:11.143Z,1014.11
2018-09-20T00:47:11.105Z,1014.12
2018-09-20T00:48:11.063Z,1014.10
2018-09-20T00:49:11.019Z,1014.07
2018-09-20T00:50:10.977Z,1014.07
2018-09-20T00:51:10.934Z,1014.05
2018-09-20T00:52:10.899Z,1014.07
2018-09-20T00:53:10.848Z,1014.10
2018-09-20T00:54:10.806Z,1014.08
2018-09-20T00:55:10.759Z,1014.04
2018-09-20T00:56:10.721Z,1014.05
2018-09-20T00:57:10.679Z,1014.06
2018-09-20T00:58:10.634Z,1014.03
2018-09-20T00:59:10.595Z,1014.03
2018-09-20T01:00:10.548Z,1013.98
2018-09-20T01:01:10.506Z,1014.03
2018-09-20T01:02:10.465Z,1014.03
2018-09-20T01:03:10.424Z,1014.08
2018-09-20T01:04:10.380Z,1014.06
2018-09-20T01:05:10.339Z,1014.06
2018-09-20T01:06:10.297Z,1014.08
2018-09-20T01:07:10.252Z,1014.05
2018-09-20T01:08:10.211Z,1014.04
2018-09-20T01:09:10.166Z,1014.05
2018-09-20T01:10:10.121Z,1014.04
2018-09-20T01:11:10.085Z,1014.05
2018-09-20T01:12:10.040Z,1014.04
2018-09-20T01:13:09.995Z,1014.05
2018-09-20T01:14:09.956Z,1014.02
2018-09-20T01:15:09.913Z,1014.03
2018-09-20T01:16:09.868Z,1014.05
2018-09-20T01:17:09.826Z,1014.06
2018-09-20T01:18:09.782Z,1014.07
2018-09-20T01:19:09.743Z,1014.06
2018-09-20T01:20:09.696Z,1014.04
2018-09-20T01:21:09.652Z,1014.07
2018-09-20T01:22:09.614Z,1014.10
2018-09-20T01:23:09.573Z,1014.11
2018-09-20T01:24:09.527Z,1014.08
2018-09-20T01:25:09.487Z,1014.15
2018-09-20T01:26:09.452Z,1014.16
2018-09-20T01:27:09.400Z,1014.11
2018-09-20T01:28:09.359Z,1014.10
2018-09-20T01:29:09.374Z,1014.13
2018-09-20T01:30:09.273Z,1014.09
2018-09-20T01:31:09.231Z,1014.11
2018-09-20T01:32:09.186Z,1014.11
2018-09-20T01:33:09.145Z,1014.12
2018-09-20T01:34:09.103Z,1014.12
2018-09-20T01:35:09.062Z,1014.13
2018-09-20T01:36:09.020Z,1014.11
2018-09-20T01:37:08.977Z,1014.10
2018-09-20T01:38:08.932Z,1014.10
2018-09-20T01:39:08.890Z,1014.10
2018-09-20T01:40:08.846Z,1014.11
2018-09-20T01:41:08.801Z,1014.10
2018-09-20T01:42:08.763Z,1014.11
2018-09-20T01:43:08.718Z,1014.11
2018-09-20T01:44:08.676Z,1014.12
2018-09-20T01:45:08.632Z,1014.09
2018-09-20T01:46:08.590Z,1014.13
2018-09-20T01:47:08.554Z,1014.13
2018-09-20T01:48:08.506Z,1014.13
2018-09-20T01:49:08.468Z,1014.15
2018-09-20T01:50:08.421Z,1014.16
2018-09-20T01:51:08.378Z,1014.15
2018-09-20T01:52:08.341Z,1014.18
2018-09-20T01:53:08.296Z,1014.17
2018-09-20T01:54:08.248Z,1014.17
2018-09-20T01:55:08.216Z,1014.16
2018-09-20T01:56:08.167Z,1014.12
2018-09-20T01:57:08.122Z,1014.11
2018-09-20T01:58:08.080Z,1014.10
2018-09-20T01:59:08.036Z,1014.08
2018-09-20T02:00:08.004Z,1014.10
2018-09-20T02:01:07.945Z,1014.12
2018-09-20T02:02:07.910Z,1014.14
2018-09-20T02:03:07.869Z,1014.11
2018-09-20T02:04:07.825Z,1014.13
2018-09-20T02:05:07.795Z,1014.13
2018-09-20T02:06:07.742Z,1014.13
2018-09-20T02:07:07.696Z,1014.12
2018-09-20T02:08:07.654Z,1014.13
2018-09-20T02:09:07.613Z,1014.15
2018-09-20T02:10:07.568Z,1014.14
2018-09-20T02:11:07.526Z,1014.13
2018-09-20T02:12:07.488Z,1014.10
2018-09-20T02:13:07.445Z,1014.14
2018-09-20T02:14:07.401Z,1014.14
2018-09-20T02:15:07.361Z,1014.16
2018-09-20T02:16:07.313Z,1014.15
2018-09-20T02:17:07.263Z,1014.16
2018-09-20T02:18:07.230Z,1014.19
2018-09-20T02:19:07.181Z,1014.18
2018-09-20T02:20:07.148Z,1014.21
2018-09-20T02:21:07.133Z,1014.18
2018-09-20T02:22:07.058Z,1014.22
2018-09-20T02:23:07.016Z,1014.18
2018-09-20T02:24:06.978Z,1014.25
2018-09-20T02:25:06.930Z,1014.22
2018-09-20T02:26:06.885Z,1014.28
2018-09-20T02:27:06.851Z,1014.28
2018-09-20T02:28:06.802Z,1014.27
2018-09-20T02:29:06.761Z,1014.31
2018-09-20T02:30:06.720Z,1014.31
2018-09-20T02:31:06.675Z,1014.33
2018-09-20T02:32:06.629Z,1014.32
2018-09-20T02:33:06.591Z,1014.32
2018-09-20T02:34:06.548Z,1014.30
2018-09-20T02:35:06.513Z,1014.29
2018-09-20T02:36:06.462Z,1014.27
2018-09-20T02:37:06.423Z,1014.29
2018-09-20T02:38:06.374Z,1014.26
2018-09-20T02:39:06.335Z,1014.29
2018-09-20T02:40:06.290Z,1014.25
2018-09-20T02:41:06.256Z,1014.25
2018-09-20T02:42:06.207Z,1014.21
2018-09-20T02:43:06.164Z,1014.22
2018-09-20T02:44:06.124Z,1014.24
2018-09-20T02:45:06.084Z,1014.24
2018-09-20T02:46:06.036Z,1014.25
2018-09-20T02:47:05.991Z,1014.23
2018-09-20T02:48:05.951Z,1014.28
2018-09-20T02:49:05.913Z,1014.31
2018-09-20T02:50:05.872Z,1014.25
2018-09-20T02:51:05.826Z,1014.35
2018-09-20T02:52:05.781Z,1014.32
2018-09-20T02:53:05.736Z,1014.32
2018-09-20T02:54:05.697Z,1014.37
2018-09-20T02:55:05.656Z,1014.35
2018-09-20T02:56:05.616Z,1014.29
2018-09-20T02:57:05.569Z,1014.31
2018-09-20T02:58:05.533Z,1014.31
2018-09-20T02:59:05.568Z,1014.29
2018-09-20T03:00:05.441Z,1014.24
2018-09-20T03:01:05.402Z,1014.23
2018-09-20T03:02:05.357Z,1014.18
2018-09-20T03:03:05.314Z,1014.20
2018-09-20T03:04:05.270Z,1014.21
2018-09-20T03:05:05.229Z,1014.20
2018-09-20T03:06:05.184Z,1014.17
2018-09-20T03:07:05.142Z,1014.19
2018-09-20T03:08:05.103Z,1014.15
2018-09-20T03:09:05.055Z,1014.17
2018-09-20T03:10:05.025Z,1014.16
2018-09-20T03:11:04.972Z,1014.16
2018-09-20T03:12:04.930Z,1014.15
2018-09-20T03:13:04.887Z,1014.17
2018-09-20T03:14:04.846Z,1014.19
2018-09-20T03:15:04.820Z,1014.20
2018-09-20T03:16:04.761Z,1014.17
2018-09-20T03:17:04.719Z,1014.18
2018-09-20T03:18:04.674Z,1014.16
2018-09-20T03:19:04.639Z,1014.15
2018-09-20T03:20:04.588Z,1014.17
2018-09-20T03:21:04.567Z,1014.13
2018-09-20T03:22:04.505Z,1014.13
2018-09-20T03:23:04.460Z,1014.09
2018-09-20T03:24:04.415Z,1014.16
2018-09-20T03:25:04.373Z,1014.12
2018-09-20T03:26:04.338Z,1014.15
2018-09-20T03:27:04.291Z,1014.13
2018-09-20T03:28:04.249Z,1014.15
2018-09-20T03:29:04.212Z,1014.11
2018-09-20T03:30:04.170Z,1014.13
2018-09-20T03:31:04.126Z,1014.13
2018-09-20T03:32:04.084Z,1014.11
2018-09-20T03:33:04.033Z,1014.09
2018-09-20T03:34:03.997Z,1014.10
2018-09-20T03:35:03.949Z,1014.09
2018-09-20T03:36:03.907Z,1014.06
2018-09-20T03:37:03.875Z,1014.09
2018-09-20T03:38:03.820Z,1014.12
2018-09-20T03:39:03.781Z,1014.15
2018-09-20T03:40:03.744Z,1014.13
2018-09-20T03:41:03.697Z,1014.16
2018-09-20T03:42:03.652Z,1014.17
2018-09-20T03:43:03.610Z,1014.12
2018-09-20T03:44:03.566Z,1014.12
2018-09-20T03:45:03.522Z,1014.13
2018-09-20T03:46:03.480Z,1014.12
2018-09-20T03:47:03.439Z,1014.09
2018-09-20T03:48:03.400Z,1014.13
2018-09-20T03:49:03.365Z,1014.12
2018-09-20T03:50:03.313Z,1014.09
2018-09-20T03:51:03.265Z,1014.11
2018-09-20T03:52:03.224Z,1014.09
2018-09-20T03:53:03.175Z,1014.07
2018-09-20T03:54:03.143Z,1014.03
2018-09-20T03:55:03.098Z,1014.05
2018-09-20T03:56:03.056Z,1014.05
2018-09-20T03:57:03.014Z,1014.11
2018-09-20T03:58:02.969Z,1014.13
2018-09-20T03:59:02.928Z,1014.17
2018-09-20T04:00:02.883Z,1014.14
2018-09-20T04:01:02.841Z,1014.10
2018-09-20T04:02:02.803Z,1014.11
2018-09-20T04:03:02.758Z,1014.08
2018-09-20T04:04:02.717Z,1014.09
2018-09-20T04:05:02.671Z,1014.09
2018-09-20T04:06:02.640Z,1014.08
2018-09-20T04:07:02.589Z,1014.07
2018-09-20T04:08:02.546Z,1014.09
2018-09-20T04:09:02.505Z,1014.06
2018-09-20T04:10:02.463Z,1014.05
2018-09-20T04:11:02.415Z,1014.04
2018-09-20T04:12:02.373Z,1014.06
2018-09-20T04:13:02.332Z,1014.10
2018-09-20T04:14:02.293Z,1014.12
2018-09-20T04:15:02.256Z,1014.13
2018-09-20T04:16:02.237Z,1014.14
2018-09-20T04:17:02.170Z,1014.14
2018-09-20T04:18:02.121Z,1014.10
2018-09-20T04:19:02.079Z,1014.08
2018-09-20T04:20:02.046Z,1014.08
2018-09-20T04:21:01.994Z,1014.09
2018-09-20T04:22:01.961Z,1014.10
2018-09-20T04:23:01.908Z,1014.09
2018-09-20T04:24:01.867Z,1014.07
2018-09-20T04:25:01.829Z,1014.04
2018-09-20T04:26:01.777Z,1014.06
2018-09-20T04:27:01.742Z,1014.10
2018-09-20T04:28:01.695Z,1014.11
2018-09-20T04:29:01.649Z,1014.15
2018-09-20T04:30:01.609Z,1014.13
2018-09-20T04:31:01.573Z,1014.14
2018-09-20T04:32:01.525Z,1014.16
2018-09-20T04:33:01.481Z,1014.19
2018-09-20T04:34:01.439Z,1014.19
2018-09-20T04:35:01.394Z,1014.19
2018-09-20T04:36:01.351Z,1014.19
2018-09-20T04:37:01.315Z,1014.19
2018-09-20T04:38:01.272Z,1014.16
2018-09-20T04:39:01.232Z,1014.19
2018-09-20T04:40:01.185Z,1014.14
2018-09-20T04:41:01.143Z,1014.17
2018-09-20T04:42:01.098Z,1014.18
2018-09-20T04:43:01.056Z,1014.15
2018-09-20T04:44:01.020Z,1014.18
2018-09-20T04:45:00.972Z,1014.17
2018-09-20T04:46:00.929Z,1014.15
2018-09-20T04:47:00.885Z,1014.16
2018-09-20T04:48:00.846Z,1014.20
2018-09-20T04:49:00.801Z,1014.19
2018-09-20T04:50:00.756Z,1014.20
2018-09-20T04:51:00.714Z,1014.18
2018-09-20T04:52:00.676Z,1014.18
2018-09-20T04:53:00.628Z,1014.20
2018-09-20T04:54:00.589Z,1014.19
2018-09-20T04:55:00.545Z,1014.22
2018-09-20T04:56:00.503Z,1014.23
2018-09-20T04:57:00.466Z,1014.22
2018-09-20T04:58:00.420Z,1014.23
2018-09-20T04:59:00.375Z,1014.22
2018-09-20T05:00:00.418Z,1014.24
2018-09-20T05:01:00.289Z,1014.20
2018-09-20T05:02:00.243Z,1014.24
2018-09-20T05:03:00.202Z,1014.25
2018-09-20T05:04:00.163Z,1014.24
2018-09-20T05:05:00.120Z,1014.28
2018-09-20T05:06:00.079Z,1014.24
2018-09-20T05:07:00.035Z,1014.24
2018-09-20T05:07:59.984Z,1014.21
2018-09-20T05:08:59.949Z,1014.22
2018-09-20T05:09:59.907Z,1014.20
2018-09-20T05:10:59.865Z,1014.21
2018-09-20T05:11:59.823Z,1014.22
2018-09-20T05:12:59.785Z,1014.22
2018-09-20T05:13:59.739Z,1014.20
2018-09-20T05:14:59.696Z,1014.17
2018-09-20T05:15:59.653Z,1014.20
2018-09-20T05:16:59.608Z,1014.23
2018-09-20T05:17:59.562Z,1014.24
2018-09-20T05:18:59.526Z,1014.23
2018-09-20T05:19:59.478Z,1014.22
2018-09-20T05:20:59.437Z,1014.23
2018-09-20T05:21:59.398Z,1014.23
2018-09-20T05:22:59.357Z,1014.22
2018-09-20T05:23:59.302Z,1014.23
2018-09-20T05:24:59.265Z,1014.26
2018-09-20T05:25:59.225Z,1014.25
2018-09-20T05:26:59.187Z,1014.22
2018-09-20T05:27:59.139Z,1014.22
2018-09-20T05:28:59.103Z,1014.19
2018-09-20T05:29:59.052Z,1014.22
2018-09-20T05:30:59.024Z,1014.19
2018-09-20T05:31:58.968Z,1014.16
2018-09-20T05:32:58.939Z,1014.15
2018-09-20T05:33:58.878Z,1014.15
2018-09-20T05:34:58.837Z,1014.15
2018-09-20T05:35:58.798Z,1014.09
2018-09-20T05:36:58.755Z,1014.09
2018-09-20T05:37:58.706Z,1014.11
2018-09-20T05:38:58.701Z,1014.09
2018-09-20T05:39:58.626Z,1014.09
2018-09-20T05:40:58.585Z,1014.08
2018-09-20T05:41:58.543Z,1014.05
2018-09-20T05:42:58.496Z,1014.10
2018-09-20T05:43:58.460Z,1014.07
2018-09-20T05:44:58.411Z,1014.11
2018-09-20T05:45:58.363Z,1014.10
2018-09-20T05:46:58.324Z,1014.13
2018-09-20T05:47:58.292Z,1014.12
2018-09-20T05:48:58.238Z,1014.13
2018-09-20T05:49:58.196Z,1014.07
2018-09-20T05:50:58.152Z,1014.10
2018-09-20T05:51:58.109Z,1014.09
2018-09-20T05:52:58.061Z,1014.05
2018-09-20T05:53:58.014Z,1014.07
2018-09-20T05:54:57.978Z,1014.08
2018-09-20T05:55:57.939Z,1014.02
2018-09-20T05:56:57.895Z,1014.07
2018-09-20T05:57:57.847Z,1014.09
2018-09-20T05:58:57.820Z,1014.05
2018-09-20T05:59:57.762Z,1014.06
2018-09-20T06:00:57.727Z,1014.06
2018-09-20T06:01:57.678Z,1014.02
2018-09-20T06:02:57.639Z,1014.07
2018-09-20T06:03:57.596Z,1014.11
2018-09-20T06:04:57.552Z,1014.13
2018-09-20T06:05:57.560Z,1014.11
2018-09-20T06:06:57.466Z,1014.14
2018-09-20T06:07:57.425Z,1014.16
2018-09-20T06:08:57.382Z,1014.18
2018-09-20T06:09:57.337Z,1014.19
2018-09-20T06:10:57.296Z,1014.19
2018-09-20T06:11:57.251Z,1014.22
2018-09-20T06:12:57.210Z,1014.25
2018-09-20T06:13:57.156Z,1014.25
2018-09-20T06:14:57.120Z,1014.28
2018-09-20T06:15:57.092Z,1014.29
2018-09-20T06:16:57.037Z,1014.26
2018-09-20T06:17:56.992Z,1014.27
2018-09-20T06:18:56.961Z,1014.23
2018-09-20T06:19:56.914Z,1014.29
2018-09-20T06:20:56.870Z,1014.27
2018-09-20T06:21:56.872Z,1014.26
2018-09-20T06:22:56.779Z,1014.24
2018-09-20T06:23:56.738Z,1014.25
2018-09-20T06:24:56.697Z,1014.27
2018-09-20T06:25:56.649Z,1014.26
2018-09-20T06:26:56.610Z,1014.28
2018-09-20T06:27:56.568Z,1014.26
2018-09-20T06:28:56.523Z,1014.26
2018-09-20T06:29:56.484Z,1014.23
2018-09-20T06:30:56.437Z,1014.22
2018-09-20T06:31:56.389Z,1014.26
2018-09-20T06:32:56.360Z,1014.26
2018-09-20T06:33:56.310Z,1014.29
2018-09-20T06:34:56.307Z,1014.29
2018-09-20T06:35:56.224Z,1014.32
2018-09-20T06:36:56.221Z,1014.28
2018-09-20T06:37:56.150Z,1014.31
2018-09-20T06:38:56.092Z,1014.34
2018-09-20T06:39:56.050Z,1014.30
2018-09-20T06:40:56.033Z,1014.33
2018-09-20T06:41:55.980Z,1014.34
2018-09-20T06:42:55.921Z,1014.38
2018-09-20T06:43:55.880Z,1014.41
2018-09-20T06:44:55.851Z,1014.43
2018-09-20T06:45:55.793Z,1014.44
2018-09-20T06:46:55.755Z,1014.47
2018-09-20T06:47:55.713Z,1014.46
2018-09-20T06:48:55.668Z,1014.44
2018-09-20T06:49:55.628Z,1014.45
2018-09-20T06:50:55.585Z,1014.44
2018-09-20T06:51:55.537Z,1014.40
2018-09-20T06:52:55.499Z,1014.43
2018-09-20T06:53:55.457Z,1014.43
2018-09-20T06:54:55.412Z,1014.42
2018-09-20T06:55:55.373Z,1014.34
2018-09-20T06:56:55.327Z,1014.36
2018-09-20T06:57:55.286Z,1014.39
2018-09-20T06:58:55.245Z,1014.37
2018-09-20T06:59:55.201Z,1014.34
2018-09-20T07:00:55.159Z,1014.40
2018-09-20T07:01:55.115Z,1014.41
2018-09-20T07:02:55.107Z,1014.40
2018-09-20T07:03:55.028Z,1014.39
2018-09-20T07:04:54.986Z,1014.35
2018-09-20T07:05:54.941Z,1014.31
2018-09-20T07:06:54.904Z,1014.30
2018-09-20T07:07:54.858Z,1014.31
2018-09-20T07:08:54.813Z,1014.24
2018-09-20T07:09:54.772Z,1014.21
2018-09-20T07:10:54.731Z,1014.24
2018-09-20T07:11:54.689Z,1014.25
2018-09-20T07:12:54.647Z,1014.30
2018-09-20T07:13:54.602Z,1014.25
2018-09-20T07:14:54.583Z,1014.24
2018-09-20T07:15:54.518Z,1014.22
2018-09-20T07:16:55.360Z,1014.23
2018-09-20T07:17:54.432Z,1014.25
2018-09-20T07:18:54.386Z,1014.23
2018-09-20T07:19:54.348Z,1014.23
2018-09-20T07:20:54.304Z,1014.22
2018-09-20T07:21:54.260Z,1014.20
2018-09-20T07:22:54.223Z,1014.21
2018-09-20T07:23:54.178Z,1014.18
2018-09-20T07:24:54.140Z,1014.18
2018-09-20T07:25:54.089Z,1014.16
2018-09-20T07:26:54.048Z,1014.14
2018-09-20T07:27:54.009Z,1014.19
2018-09-20T07:28:53.962Z,1014.14
2018-09-20T07:29:53.917Z,1014.17
2018-09-20T07:30:53.875Z,1014.21
2018-09-20T07:31:53.833Z,1014.18
2018-09-20T07:32:53.845Z,1014.22
2018-09-20T07:33:53.747Z,1014.23
2018-09-20T07:34:53.704Z,1014.21
2018-09-20T07:35:53.660Z,1014.20
2018-09-20T07:36:53.628Z,1014.18
2018-09-20T07:37:53.576Z,1014.21
2018-09-20T07:38:53.538Z,1014.17
2018-09-20T07:39:53.500Z,1014.18
2018-09-20T07:40:53.452Z,1014.19
2018-09-20T07:41:53.407Z,1014.19
2018-09-20T07:42:53.368Z,1014.20
2018-09-20T07:43:53.317Z,1014.19
2018-09-20T07:44:53.278Z,1014.15
2018-09-20T07:45:53.243Z,1014.16
2018-09-20T07:46:53.189Z,1014.16
2018-09-20T07:47:53.151Z,1014.17
2018-09-20T07:48:53.109Z,1014.19
2018-09-20T07:49:53.063Z,1014.19
2018-09-20T07:50:53.022Z,1014.23
2018-09-20T07:51:52.975Z,1014.19
2018-09-20T07:52:52.938Z,1014.17
2018-09-20T07:53:52.941Z,1014.21
2018-09-20T07:54:52.851Z,1014.21
2018-09-20T07:55:52.825Z,1014.22
2018-09-20T07:56:52.802Z,1014.22
2018-09-20T07:57:52.727Z,1014.25
2018-09-20T07:58:52.685Z,1014.22
2018-09-20T07:59:52.638Z,1014.22
2018-09-20T08:00:52.596Z,1014.23
2018-09-20T08:01:52.551Z,1014.22
2018-09-20T08:02:52.509Z,1014.22
2018-09-20T08:03:52.469Z,1014.22
2018-09-20T08:04:52.426Z,1014.24
2018-09-20T08:05:52.381Z,1014.27
2018-09-20T08:06:52.340Z,1014.30
2018-09-20T08:07:52.289Z,1014.27
2018-09-20T08:08:52.257Z,1014.32
2018-09-20T08:09:52.209Z,1014.35
2018-09-20T08:10:52.171Z,1014.35
2018-09-20T08:11:52.127Z,1014.35
2018-09-20T08:12:52.146Z,1014.32
2018-09-20T08:13:52.046Z,1014.33
2018-09-20T08:14:51.999Z,1014.38
2018-09-20T08:15:51.959Z,1014.37
2018-09-20T08:16:51.916Z,1014.37
2018-09-20T08:17:51.869Z,1014.40
2018-09-20T08:18:51.827Z,1014.37
2018-09-20T08:19:51.782Z,1014.42
2018-09-20T08:20:51.749Z,1014.40
2018-09-20T08:21:51.704Z,1014.35
2018-09-20T08:22:51.656Z,1014.35
2018-09-20T08:23:51.615Z,1014.35
2018-09-20T08:24:51.571Z,1014.34
2018-09-20T08:25:51.531Z,1014.36
2018-09-20T08:26:51.485Z,1014.32
2018-09-20T08:27:51.487Z,1014.33
2018-09-20T08:28:51.403Z,1014.33
2018-09-20T08:29:51.359Z,1014.34
2018-09-20T08:30:51.319Z,1014.34
2018-09-20T08:31:51.273Z,1014.36
2018-09-20T08:32:51.231Z,1014.36
2018-09-20T08:33:51.199Z,1014.26
2018-09-20T08:34:51.163Z,1014.32
2018-09-20T08:35:51.101Z,1014.35
2018-09-20T08:36:51.061Z,1014.33
2018-09-20T08:37:51.130Z,1014.35
2018-09-20T08:38:50.974Z,1014.33
2018-09-20T08:39:50.932Z,1014.34
2018-09-20T08:40:50.891Z,1014.33
2018-09-20T08:41:50.846Z,1014.32
2018-09-20T08:42:50.805Z,1014.32
2018-09-20T08:43:50.764Z,1014.36
2018-09-20T08:44:50.721Z,1014.31
2018-09-20T08:45:50.680Z,1014.30
2018-09-20T08:46:50.632Z,1014.30
2018-09-20T08:47:50.593Z,1014.33
2018-09-20T08:48:50.547Z,1014.30
2018-09-20T08:49:50.508Z,1014.27
2018-09-20T08:50:50.466Z,1014.27
2018-09-20T08:51:50.422Z,1014.25
2018-09-20T08:52:50.380Z,1014.29
2018-09-20T08:53:50.337Z,1014.28
2018-09-20T08:54:50.292Z,1014.29
2018-09-20T08:55:50.247Z,1014.27
2018-09-20T08:56:50.266Z,1014.28
2018-09-20T08:57:50.179Z,1014.30
2018-09-20T08:58:50.127Z,1014.31
2018-09-20T08:59:50.081Z,1014.29
2018-09-20T09:00:50.039Z,1014.30
2018-09-20T09:01:50.004Z,1014.28
2018-09-20T09:02:49.956Z,1014.24
2018-09-20T09:03:49.908Z,1014.25
2018-09-20T09:04:49.870Z,1014.19
2018-09-20T09:05:49.829Z,1014.21
2018-09-20T09:06:49.786Z,1014.20
2018-09-20T09:07:49.740Z,1014.22
2018-09-20T09:08:49.698Z,1014.15
2018-09-20T09:09:49.654Z,1014.18
2018-09-20T09:10:49.619Z,1014.12
2018-09-20T09:11:49.592Z,1014.11
2018-09-20T09:12:49.527Z,1014.11
2018-09-20T09:13:49.485Z,1014.12
2018-09-20T09:14:49.440Z,1014.13
2018-09-20T09:15:49.408Z,1014.10
2018-09-20T09:16:49.359Z,1014.08
2018-09-20T09:17:49.314Z,1014.12
2018-09-20T09:18:49.270Z,1014.08
2018-09-20T09:19:49.228Z,1014.05
2018-09-20T09:20:49.182Z,1014.06
2018-09-20T09:21:49.143Z,1014.11
2018-09-20T09:22:49.101Z,1014.11
2018-09-20T09:23:49.061Z,1014.14
2018-09-20T09:24:49.020Z,1014.11
2018-09-20T09:25:48.969Z,1014.06
2018-09-20T09:26:48.931Z,1014.03
2018-09-20T09:27:48.892Z,1014.02
2018-09-20T09:28:48.844Z,1014.00
2018-09-20T09:29:48.806Z,1014.04
2018-09-20T09:30:48.760Z,1014.01
2018-09-20T09:31:48.713Z,1014.04
2018-09-20T09:32:48.675Z,1014.01
2018-09-20T09:33:48.629Z,1013.98
2018-09-20T09:34:48.596Z,1014.03
2018-09-20T09:35:48.549Z,1014.00
2018-09-20T09:36:48.507Z,1013.98
2018-09-20T09:37:48.462Z,1014.02
2018-09-20T09:38:48.421Z,1013.99
2018-09-20T09:39:48.378Z,1014.00
2018-09-20T09:40:48.335Z,1014.00
2018-09-20T09:41:48.292Z,1013.97
2018-09-20T09:42:48.245Z,1013.93
2018-09-20T09:43:48.209Z,1013.90
2018-09-20T09:44:48.169Z,1013.90
2018-09-20T09:45:48.121Z,1013.86
2018-09-20T09:46:48.082Z,1013.86
2018-09-20T09:47:48.032Z,1013.85
2018-09-20T09:48:48.000Z,1013.88
2018-09-20T09:49:47.946Z,1013.86
2018-09-20T09:50:47.908Z,1013.88
2018-09-20T09:51:47.866Z,1013.89
2018-09-20T09:52:47.824Z,1013.90
2018-09-20T09:53:47.780Z,1013.85
2018-09-20T09:54:47.749Z,1013.82
2018-09-20T09:55:47.700Z,1013.82
2018-09-20T09:56:47.652Z,1013.84
2018-09-20T09:57:47.620Z,1013.80
2018-09-20T09:58:47.571Z,1013.82
2018-09-20T09:59:47.538Z,1013.84
2018-09-20T10:00:47.484Z,1013.86
2018-09-20T10:01:47.450Z,1013.82
2018-09-20T10:02:47.395Z,1013.79
2018-09-20T10:03:47.360Z,1013.76
2018-09-20T10:04:47.317Z,1013.74
2018-09-20T10:05:47.270Z,1013.72
2018-09-20T10:06:47.285Z,1013.73
2018-09-20T10:07:47.189Z,1013.77
2018-09-20T10:08:47.139Z,1013.76
2018-09-20T10:09:47.101Z,1013.72
2018-09-20T10:10:47.056Z,1013.72
2018-09-20T10:11:47.015Z,1013.72
2018-09-20T10:12:46.971Z,1013.68
2018-09-20T10:13:46.974Z,1013.68
2018-09-20T10:14:46.890Z,1013.68
2018-09-20T10:15:46.844Z,1013.67
2018-09-20T10:16:46.799Z,1013.62
2018-09-20T10:17:46.759Z,1013.62
2018-09-20T10:18:46.717Z,1013.62
2018-09-20T10:19:46.683Z,1013.62
2018-09-20T10:20:46.635Z,1013.58
2018-09-20T10:21:46.583Z,1013.52
2018-09-20T10:22:46.557Z,1013.51
2018-09-20T10:23:46.508Z,1013.49
2018-09-20T10:24:46.464Z,1013.49
2018-09-20T10:25:46.416Z,1013.48
2018-09-20T10:26:46.377Z,1013.43
2018-09-20T10:27:46.335Z,1013.46
2018-09-20T10:28:46.301Z,1013.47
2018-09-20T10:29:46.248Z,1013.42
2018-09-20T10:30:46.205Z,1013.43
2018-09-20T10:31:46.172Z,1013.36
2018-09-20T10:32:46.127Z,1013.40
2018-09-20T10:33:46.132Z,1013.45
2018-09-20T10:34:46.038Z,1013.45
2018-09-20T10:35:45.997Z,1013.45
2018-09-20T10:36:45.951Z,1013.39
2018-09-20T10:37:45.909Z,1013.40
2018-09-20T10:38:45.868Z,1013.45
2018-09-20T10:39:45.823Z,1013.42
2018-09-20T10:40:45.788Z,1013.46
2018-09-20T10:41:45.738Z,1013.45
2018-09-20T10:42:45.693Z,1013.45
2018-09-20T10:43:45.652Z,1013.42
2018-09-20T10:44:45.617Z,1013.44
2018-09-20T10:45:45.617Z,1013.39
2018-09-20T10:46:45.528Z,1013.37
2018-09-20T10:47:45.487Z,1013.35
2018-09-20T10:48:45.441Z,1013.32
2018-09-20T10:49:45.400Z,1013.32
2018-09-20T10:50:45.355Z,1013.30
2018-09-20T10:51:45.314Z,1013.29
2018-09-20T10:52:45.272Z,1013.19
2018-09-20T10:53:45.231Z,1013.20
2018-09-20T10:54:45.265Z,1013.15
2018-09-20T10:55:45.141Z,1013.14
2018-09-20T10:56:45.103Z,1013.11
2018-09-20T10:57:45.058Z,1013.06
2018-09-20T10:58:45.012Z,1013.11
2018-09-20T10:59:44.972Z,1013.05
2018-09-20T11:00:44.932Z,1013.09
2018-09-20T11:01:44.894Z,1013.10
2018-09-20T11:02:44.849Z,1013.02
2018-09-20T11:03:44.801Z,1013.03
2018-09-20T11:04:44.762Z,1013.10
2018-09-20T11:05:44.718Z,1013.01
2018-09-20T11:06:44.676Z,1013.02
2018-09-20T11:07:44.631Z,1012.91
2018-09-20T11:08:44.590Z,1012.96
2018-09-20T11:09:44.544Z,1012.94
2018-09-20T11:10:44.564Z,1012.94
2018-09-20T11:11:44.466Z,1012.90
2018-09-20T11:12:44.428Z,1012.88
2018-09-20T11:13:44.380Z,1012.91
2018-09-20T11:14:44.344Z,1012.94
2018-09-20T11:15:44.293Z,1012.87
2018-09-20T11:16:44.251Z,1012.87
2018-09-20T11:17:44.209Z,1012.89
2018-09-20T11:18:44.159Z,1012.88
2018-09-20T11:19:44.132Z,1012.85
2018-09-20T11:20:44.081Z,1012.89
2018-09-20T11:21:44.036Z,1012.83
2018-09-20T11:22:44.004Z,1012.89
2018-09-20T11:23:43.952Z,1012.85
2018-09-20T11:24:43.907Z,1012.81
2018-09-20T11:25:43.923Z,1012.79
2018-09-20T11:26:43.827Z,1012.87
2018-09-20T11:27:43.782Z,1012.88
2018-09-20T11:28:43.740Z,1012.83
2018-09-20T11:29:43.699Z,1012.77
2018-09-20T11:30:43.657Z,1012.84
2018-09-20T11:31:43.616Z,1012.77
2018-09-20T11:32:43.570Z,1012.78
2018-09-20T11:33:43.529Z,1012.73
2018-09-20T11:34:43.487Z,1012.68
2018-09-20T11:35:43.446Z,1012.69
2018-09-20T11:36:43.404Z,1012.68
2018-09-20T11:37:43.351Z,1012.62
2018-09-20T11:38:43.317Z,1012.67
2018-09-20T11:39:43.275Z,1012.62
2018-09-20T11:40:43.230Z,1012.61
2018-09-20T11:41:43.188Z,1012.63
2018-09-20T11:42:43.141Z,1012.68
2018-09-20T11:43:43.108Z,1012.67
2018-09-20T11:44:43.058Z,1012.66
2018-09-20T11:45:43.017Z,1012.74
2018-09-20T11:46:43.028Z,1012.73
2018-09-20T11:47:42.933Z,1012.65
2018-09-20T11:48:42.888Z,1012.64
2018-09-20T11:49:42.850Z,1012.64
2018-09-20T11:50:42.802Z,1012.60
2018-09-20T11:51:42.764Z,1012.64
2018-09-20T11:52:42.722Z,1012.61
2018-09-20T11:53:42.677Z,1012.67
2018-09-20T11:54:42.633Z,1012.63
2018-09-20T11:55:42.594Z,1012.59
2018-09-20T11:56:42.577Z,1012.55
2018-09-20T11:57:42.506Z,1012.58
2018-09-20T11:58:42.471Z,1012.55
2018-09-20T11:59:42.423Z,1012.60
2018-09-20T12:00:42.391Z,1012.52
2018-09-20T12:01:42.338Z,1012.56
2018-09-20T12:02:42.302Z,1012.55
2018-09-20T12:03:42.251Z,1012.58
2018-09-20T12:04:42.209Z,1012.52